createdAt,value
2022-09-16T00:02:26.198Z,24.30
2022-09-16T00:04:54.570Z,24.30
2022-09-16T00:07:21.943Z,24.30
2022-09-16T00:09:49.292Z,24.30
2022-09-16T00:12:16.555Z,24.30
2022-09-16T00:14:43.824Z,24.30
2022-09-16T00:17:11.205Z,24.20
2022-09-16T00:19:38.515Z,24.20
2022-09-16T00:22:06.240Z,24.10
2022-09-16T00:24:33.552Z,24.00
2022-09-16T00:27:00.867Z,24.00
2022-09-16T00:29:28.523Z,23.90
2022-09-16T00:31:55.925Z,23.90
2022-09-16T00:34:26.557Z,23.90
2022-09-16T00:36:54.958Z,23.90
2022-09-16T00:39:22.248Z,23.80
2022-09-16T00:41:49.952Z,23.80
2022-09-16T00:44:53.307Z,23.70
2022-09-16T00:47:38.971Z,23.70
2022-09-16T00:50:31.285Z,23.60
2022-09-16T00:53:00.619Z,23.60
2022-09-16T00:55:48.612Z,23.60
2022-09-16T00:58:28.665Z,23.50
2022-09-16T01:00:56.217Z,23.50
2022-09-16T01:03:24.293Z,23.50
2022-09-16T01:05:52.658Z,23.50
2022-09-16T01:08:20.050Z,23.50
2022-09-16T01:10:47.352Z,23.50
2022-09-16T01:13:16.214Z,23.50
2022-09-16T01:15:55.053Z,23.50
2022-09-16T01:18:46.844Z,23.50
2022-09-16T01:21:33.905Z,23.50
2022-09-16T01:24:08.030Z,23.40
2022-09-16T01:27:17.367Z,23.40
2022-09-16T01:30:06.726Z,23.40
2022-09-16T01:33:16.813Z,23.50
2022-09-16T01:35:47.195Z,23.50
2022-09-16T01:38:34.155Z,23.50
2022-09-16T01:41:28.292Z,23.60
2022-09-16T01:44:21.601Z,23.50
2022-09-16T01:47:28.349Z,23.50
2022-09-16T01:50:28.441Z,23.50
2022-09-16T01:53:00.166Z,23.50
2022-09-16T01:55:46.960Z,23.50
2022-09-16T01:58:17.849Z,23.40
2022-09-16T02:00:46.315Z,23.40
2022-09-16T02:03:23.911Z,23.40
2022-09-16T02:06:15.100Z,23.40
2022-09-16T02:08:51.224Z,23.40
2022-09-16T02:11:19.792Z,23.30
2022-09-16T02:14:01.685Z,23.30
2022-09-16T02:16:39.215Z,23.40
2022-09-16T02:21:56.676Z,23.50
2022-09-16T02:24:27.545Z,23.50
2022-09-16T02:27:18.368Z,23.60
2022-09-16T02:30:01.678Z,23.60
2022-09-16T02:32:34.101Z,23.60
2022-09-16T02:35:06.852Z,23.60
2022-09-16T02:37:42.655Z,23.60
2022-09-16T02:40:42.039Z,23.60
2022-09-16T02:43:09.421Z,23.50
2022-09-16T02:45:55.185Z,23.40
2022-09-16T02:48:58.334Z,23.40
2022-09-16T02:51:40.360Z,23.40
2022-09-16T02:54:32.352Z,23.30
2022-09-16T02:57:00.695Z,23.30
2022-09-16T02:59:28.194Z,23.30
2022-09-16T03:01:55.546Z,23.30
2022-09-16T03:04:22.987Z,23.20
2022-09-16T03:06:50.447Z,23.20
2022-09-16T03:09:18.544Z,23.20
2022-09-16T03:11:58.626Z,23.10
2022-09-16T03:15:26.936Z,23.10
2022-09-16T03:18:10.553Z,23.10
2022-09-16T03:21:01.247Z,23.10
2022-09-16T03:23:44.945Z,23.00
2022-09-16T03:26:51.365Z,23.00
2022-09-16T03:29:49.362Z,22.90
2022-09-16T03:33:10.650Z,22.90
2022-09-16T03:35:45.653Z,22.90
2022-09-16T03:38:13.876Z,22.90
2022-09-16T03:40:42.979Z,22.80
2022-09-16T03:43:12.958Z,22.80
2022-09-16T03:45:43.342Z,22.80
2022-09-16T03:48:12.456Z,22.80
2022-09-16T03:50:40.177Z,22.80
2022-09-16T03:53:07.655Z,22.80
2022-09-16T03:55:34.980Z,22.70
2022-09-16T03:58:03.825Z,22.70
2022-09-16T04:00:31.469Z,22.80
2022-09-16T04:03:00.675Z,22.80
2022-09-16T04:05:28.420Z,22.80
2022-09-16T04:07:57.035Z,22.80
2022-09-16T04:10:24.532Z,22.80
2022-09-16T04:12:51.820Z,22.80
2022-09-16T04:15:19.054Z,22.80
2022-09-16T04:17:47.997Z,22.80
2022-09-16T04:20:15.450Z,22.80
2022-09-16T04:22:42.770Z,22.80
2022-09-16T04:25:10.173Z,22.80
2022-09-16T04:27:37.517Z,22.80
2022-09-16T04:30:25.211Z,22.80
2022-09-16T04:32:56.726Z,22.80
2022-09-16T04:35:25.362Z,22.70
2022-09-16T04:37:54.193Z,22.70
2022-09-16T04:40:21.835Z,22.70
2022-09-16T04:43:14.892Z,22.70
2022-09-16T04:45:42.152Z,22.70
2022-09-16T04:48:09.467Z,22.70
2022-09-16T04:50:39.696Z,22.70
2022-09-16T04:53:07.071Z,22.70
2022-09-16T04:55:37.406Z,22.70
2022-09-16T04:58:04.805Z,22.70
2022-09-16T05:00:32.506Z,22.70
2022-09-16T05:02:59.807Z,22.70
2022-09-16T05:05:30.916Z,22.70
2022-09-16T05:08:38.617Z,22.70
2022-09-16T05:11:12.137Z,22.70
2022-09-16T05:13:40.205Z,22.80
2022-09-16T05:16:28.468Z,22.70
2022-09-16T05:19:05.095Z,22.70
2022-09-16T05:21:39.109Z,22.70
2022-09-16T05:24:11.097Z,22.70
2022-09-16T05:26:42.096Z,22.70
2022-09-16T05:29:13.434Z,22.80
2022-09-16T05:31:42.677Z,22.80
2022-09-16T05:34:14.201Z,22.80
2022-09-16T05:36:43.825Z,22.80
2022-09-16T05:39:22.793Z,22.80
2022-09-16T05:42:00.367Z,22.90
2022-09-16T05:44:28.943Z,22.90
2022-09-16T05:46:57.350Z,22.90
2022-09-16T05:49:24.807Z,23.00
2022-09-16T05:51:53.128Z,23.00
2022-09-16T05:54:41.124Z,23.00
2022-09-16T05:57:08.631Z,23.00
2022-09-16T05:59:35.964Z,23.10
2022-09-16T06:02:03.742Z,23.10
2022-09-16T06:04:31.070Z,23.10
2022-09-16T06:06:59.799Z,23.20
2022-09-16T06:09:29.938Z,23.20
2022-09-16T06:12:01.978Z,23.20
2022-09-16T06:14:30.995Z,23.20
2022-09-16T06:16:58.670Z,23.20
2022-09-16T06:19:26.003Z,23.20
2022-09-16T06:21:53.380Z,23.30
2022-09-16T06:24:36.921Z,23.20
2022-09-16T06:27:04.267Z,23.30
2022-09-16T06:29:31.447Z,23.30
2022-09-16T06:31:58.785Z,23.30
2022-09-16T06:34:27.167Z,23.30
2022-09-16T06:36:58.709Z,23.40
2022-09-16T06:39:26.258Z,23.40
2022-09-16T06:41:53.690Z,23.40
2022-09-16T06:44:30.520Z,23.40
2022-09-16T06:47:00.012Z,23.50
2022-09-16T06:49:28.512Z,23.50
2022-09-16T06:51:58.601Z,23.60
2022-09-16T06:54:26.057Z,23.70
2022-09-16T06:56:53.369Z,23.70
2022-09-16T06:59:20.656Z,23.80
2022-09-16T07:01:48.066Z,23.90
2022-09-16T07:04:15.335Z,24.00
2022-09-16T07:07:08.200Z,24.00
2022-09-16T07:09:30.215Z,24.10
2022-09-16T07:12:05.302Z,24.20
2022-09-16T07:14:32.796Z,24.30
2022-09-16T07:17:04.530Z,24.40
2022-09-16T07:19:31.899Z,24.50
2022-09-16T07:21:59.340Z,24.70
2022-09-16T07:24:27.125Z,24.80
2022-09-16T07:26:54.477Z,24.90
2022-09-16T07:29:22.015Z,24.90
2022-09-16T07:31:57.263Z,24.90
2022-09-16T07:34:24.654Z,24.90
2022-09-16T07:36:53.509Z,24.90
2022-09-16T07:39:23.841Z,25.00
2022-09-16T07:41:51.188Z,25.10
2022-09-16T07:44:20.510Z,25.10
2022-09-16T07:46:48.411Z,25.10
2022-09-16T07:49:24.307Z,25.20
2022-09-16T07:51:51.577Z,25.30
2022-09-16T07:54:20.082Z,25.30
2022-09-16T07:56:47.568Z,25.30
2022-09-16T07:59:19.040Z,25.30
2022-09-16T08:01:48.765Z,25.40
2022-09-16T08:04:17.205Z,25.50
2022-09-16T08:06:44.528Z,25.70
2022-09-16T08:09:36.741Z,25.70
2022-09-16T08:12:04.656Z,25.80
2022-09-16T08:14:36.755Z,26.00
2022-09-16T08:17:04.320Z,26.00
2022-09-16T08:19:31.720Z,26.00
2022-09-16T08:21:59.290Z,26.10
2022-09-16T08:24:26.797Z,26.10
2022-09-16T08:29:27.238Z,26.20
2022-09-16T08:31:54.702Z,26.20
2022-09-16T08:34:22.140Z,26.20
2022-09-16T08:36:49.493Z,26.20
2022-09-16T08:39:16.893Z,26.30
2022-09-16T08:41:44.281Z,26.30
2022-09-16T08:44:23.688Z,26.30
2022-09-16T08:46:58.950Z,26.40
2022-09-16T08:49:47.126Z,26.50
2022-09-16T08:52:50.168Z,26.50
2022-09-16T08:55:37.751Z,26.60
2022-09-16T08:58:15.097Z,26.60
2022-09-16T09:00:49.093Z,26.60
2022-09-16T09:03:37.068Z,26.60
2022-09-16T09:06:31.385Z,26.70
2022-09-16T09:09:32.133Z,26.70
2022-09-16T09:12:16.395Z,26.70
2022-09-16T09:15:05.945Z,26.80
2022-09-16T09:17:48.192Z,26.80
2022-09-16T09:20:37.058Z,26.90
2022-09-16T09:23:07.129Z,27.00
2022-09-16T09:25:43.801Z,27.00
2022-09-16T09:28:17.733Z,27.10
2022-09-16T09:30:57.904Z,27.20
2022-09-16T09:36:30.709Z,27.40
2022-09-16T09:39:35.477Z,27.50
2022-09-16T09:42:22.787Z,27.60
2022-09-16T09:45:29.788Z,27.60
2022-09-16T09:48:25.341Z,27.60
2022-09-16T09:50:53.659Z,27.60
2022-09-16T09:53:30.867Z,27.80
2022-09-16T09:56:21.195Z,27.90
2022-09-16T09:58:54.408Z,28.00
2022-09-16T10:01:21.959Z,28.20
2022-09-16T10:04:01.447Z,28.20
2022-09-16T10:06:35.973Z,28.30
2022-09-16T10:09:03.388Z,28.40
2022-09-16T10:11:34.044Z,28.40
2022-09-16T10:14:02.605Z,28.60
2022-09-16T10:16:47.347Z,28.60
2022-09-16T10:19:29.317Z,28.60
2022-09-16T10:22:10.093Z,28.80
2022-09-16T10:24:40.249Z,29.00
2022-09-16T10:27:27.027Z,29.00
2022-09-16T10:30:15.916Z,29.10
2022-09-16T10:33:13.265Z,29.10
2022-09-16T10:35:51.276Z,29.20
2022-09-16T10:38:21.257Z,29.40
2022-09-16T10:40:57.925Z,29.40
2022-09-16T10:43:26.969Z,29.60
2022-09-16T10:45:54.882Z,29.80
2022-09-16T10:48:27.144Z,29.90
2022-09-16T10:51:22.993Z,30.00
2022-09-16T10:53:58.923Z,30.20
2022-09-16T10:56:32.894Z,30.30
2022-09-16T10:59:07.067Z,30.30
2022-09-16T11:02:16.668Z,30.50
2022-09-16T11:05:27.385Z,30.80
2022-09-16T11:08:20.702Z,31.10
2022-09-16T11:11:20.261Z,31.50
2022-09-16T11:13:56.504Z,31.40
2022-09-16T11:16:48.967Z,33.40
2022-09-16T11:19:45.918Z,38.40
2022-09-16T11:22:32.007Z,39.10
2022-09-16T11:25:14.369Z,39.90
2022-09-16T11:27:53.536Z,41.50
2022-09-16T11:30:22.537Z,42.90
2022-09-16T11:33:17.160Z,41.10
2022-09-16T11:35:48.076Z,38.80
2022-09-16T11:38:21.388Z,36.70
2022-09-16T11:41:14.953Z,35.40
2022-09-16T11:43:45.438Z,34.40
2022-09-16T11:46:34.136Z,33.30
2022-09-16T11:49:22.656Z,32.60
2022-09-16T11:52:14.614Z,31.90
2022-09-16T11:54:55.452Z,31.60
2022-09-16T11:57:29.875Z,31.60
2022-09-16T12:00:10.696Z,31.70
2022-09-16T12:03:01.785Z,31.50
2022-09-16T12:05:56.268Z,31.30
2022-09-16T12:08:32.135Z,31.30
2022-09-16T12:11:22.185Z,31.50
2022-09-16T12:14:14.336Z,31.50
2022-09-16T12:17:10.827Z,31.50
2022-09-16T12:20:34.018Z,31.50
2022-09-16T12:23:14.788Z,31.60
2022-09-16T12:26:17.027Z,31.60
2022-09-16T12:29:21.628Z,31.50
2022-09-16T12:32:36.038Z,31.50
2022-09-16T12:35:18.995Z,31.50
2022-09-16T12:38:27.156Z,31.40
2022-09-16T12:41:09.409Z,31.20
2022-09-16T12:43:51.780Z,30.90
2022-09-16T12:47:00.994Z,30.70
2022-09-16T12:49:31.079Z,30.50
2022-09-16T12:52:27.465Z,30.50
2022-09-16T12:55:16.066Z,30.50
2022-09-16T12:58:11.140Z,30.50
2022-09-16T13:00:56.933Z,30.70
2022-09-16T13:04:12.453Z,30.70
2022-09-16T13:07:08.220Z,30.80
2022-09-16T13:10:04.034Z,30.90
2022-09-16T13:12:40.942Z,31.00
2022-09-16T13:15:34.639Z,31.00
2022-09-16T13:18:14.044Z,31.00
2022-09-16T13:20:57.688Z,31.00
2022-09-16T13:23:42.009Z,31.00
2022-09-16T13:26:10.591Z,31.00
2022-09-16T13:31:46.729Z,30.90
2022-09-16T13:34:17.354Z,30.80
2022-09-16T13:36:44.881Z,30.80
2022-09-16T13:39:15.501Z,30.80
2022-09-16T13:41:47.346Z,30.70
2022-09-16T13:44:39.785Z,30.70
2022-09-16T13:47:57.037Z,30.70
2022-09-16T13:50:26.270Z,30.60
2022-09-16T13:53:00.365Z,30.60
2022-09-16T13:55:28.114Z,30.50
2022-09-16T13:58:04.287Z,30.40
2022-09-16T14:01:08.859Z,30.40
2022-09-16T14:03:54.368Z,30.30
2022-09-16T14:06:45.054Z,30.30
2022-09-16T14:09:24.261Z,30.20
2022-09-16T14:12:43.306Z,30.10
2022-09-16T14:15:15.673Z,30.00
2022-09-16T14:17:51.775Z,29.70
2022-09-16T14:20:22.063Z,29.70
2022-09-16T14:23:01.467Z,29.60
2022-09-16T14:25:36.795Z,29.70
2022-09-16T14:28:27.958Z,29.80
2022-09-16T14:31:02.938Z,29.80
2022-09-16T14:33:34.919Z,29.80
2022-09-16T14:36:14.654Z,29.70
2022-09-16T14:39:12.142Z,29.80
2022-09-16T14:41:56.085Z,29.90
2022-09-16T14:44:41.546Z,29.80
2022-09-16T14:47:47.356Z,29.80
2022-09-16T14:50:24.728Z,29.80
2022-09-16T14:53:35.852Z,29.80
2022-09-16T14:56:05.253Z,29.70
2022-09-16T14:58:33.783Z,29.70
2022-09-16T15:01:10.327Z,29.80
2022-09-16T15:04:02.872Z,29.80
2022-09-16T15:06:39.897Z,29.70
2022-09-16T15:09:21.437Z,29.70
2022-09-16T15:11:57.780Z,29.70
2022-09-16T15:14:26.593Z,29.70
2022-09-16T15:16:58.514Z,29.60
2022-09-16T15:19:35.925Z,29.60
2022-09-16T15:22:24.565Z,29.50
2022-09-16T15:24:59.210Z,29.40
2022-09-16T15:27:35.254Z,29.50
2022-09-16T15:30:07.345Z,29.40
2022-09-16T15:32:43.952Z,29.40
2022-09-16T15:35:26.965Z,29.30
2022-09-16T15:37:55.212Z,29.30
2022-09-16T15:40:25.592Z,29.20
2022-09-16T15:43:21.857Z,29.20
2022-09-16T15:46:35.618Z,29.20
2022-09-16T15:49:11.137Z,29.10
2022-09-16T15:51:51.477Z,29.10
2022-09-16T15:54:33.962Z,29.10
2022-09-16T15:57:31.679Z,29.00
2022-09-16T16:00:25.044Z,29.00
2022-09-16T16:02:56.864Z,28.90
2022-09-16T16:05:29.497Z,28.90
2022-09-16T16:08:08.936Z,28.80
2022-09-16T16:10:38.408Z,28.80
2022-09-16T16:13:05.818Z,28.80
2022-09-16T16:15:36.817Z,28.80
2022-09-16T16:18:10.738Z,28.70
2022-09-16T16:20:40.371Z,28.70
2022-09-16T16:23:08.136Z,28.70
2022-09-16T16:25:35.453Z,28.60
2022-09-16T16:28:02.752Z,28.60
2022-09-16T16:30:32.775Z,28.50
2022-09-16T16:33:00.127Z,28.50
2022-09-16T16:35:27.410Z,28.30
2022-09-16T16:37:54.669Z,28.30
2022-09-16T16:40:21.969Z,28.30
2022-09-16T16:42:49.290Z,28.20
2022-09-16T16:45:16.711Z,28.10
2022-09-16T16:47:44.499Z,28.00
2022-09-16T16:50:11.762Z,27.90
2022-09-16T16:52:39.578Z,27.90
2022-09-16T16:55:17.097Z,27.80
2022-09-16T16:57:44.740Z,27.80
2022-09-16T17:00:16.306Z,27.70
2022-09-16T17:02:43.769Z,27.70
2022-09-16T17:05:11.290Z,27.70
2022-09-16T17:07:39.075Z,27.70
2022-09-16T17:10:07.909Z,27.70
2022-09-16T17:12:35.159Z,27.70
2022-09-16T17:15:07.044Z,27.70
2022-09-16T17:17:34.344Z,27.70
2022-09-16T17:20:09.224Z,27.70
2022-09-16T17:22:36.603Z,27.60
2022-09-16T17:25:07.246Z,27.60
2022-09-16T17:27:34.529Z,27.60
2022-09-16T17:30:02.240Z,27.50
2022-09-16T17:32:29.589Z,27.50
2022-09-16T17:34:59.852Z,27.40
2022-09-16T17:37:27.122Z,27.40
2022-09-16T17:40:18.078Z,27.40
2022-09-16T17:42:46.041Z,27.30
2022-09-16T17:45:43.434Z,27.30
2022-09-16T17:48:10.719Z,27.30
2022-09-16T17:50:38.639Z,27.30
2022-09-16T17:53:05.970Z,27.30
2022-09-16T17:55:33.271Z,27.20
2022-09-16T17:58:02.333Z,27.20
2022-09-16T18:04:02.945Z,27.10
2022-09-16T18:06:51.236Z,27.10
2022-09-16T18:09:18.714Z,27.10
2022-09-16T18:11:46.227Z,27.00
2022-09-16T18:14:14.138Z,27.00
2022-09-16T18:16:42.118Z,27.00
2022-09-16T18:19:09.841Z,27.00
2022-09-16T18:21:53.977Z,27.00
2022-09-16T18:24:21.485Z,27.00
2022-09-16T18:26:49.466Z,26.90
2022-09-16T18:29:29.199Z,26.90
2022-09-16T18:31:56.509Z,26.90
2022-09-16T18:34:24.781Z,26.90
2022-09-16T18:36:52.213Z,26.80
2022-09-16T18:39:19.553Z,26.80
2022-09-16T18:41:46.955Z,26.80
2022-09-16T18:44:19.767Z,26.80
2022-09-16T18:46:48.046Z,26.70
2022-09-16T18:49:56.019Z,26.80
2022-09-16T18:52:23.337Z,26.80
2022-09-16T18:54:50.691Z,26.80
2022-09-16T18:57:18.041Z,26.70
2022-09-16T18:59:45.445Z,26.70
2022-09-16T19:02:14.387Z,26.70
2022-09-16T19:04:43.069Z,26.70
2022-09-16T19:07:13.965Z,26.70
2022-09-16T19:09:41.374Z,26.60
2022-09-16T19:12:13.434Z,26.60
2022-09-16T19:15:05.688Z,26.50
2022-09-16T19:17:40.125Z,26.50
2022-09-16T19:20:07.929Z,26.60
2022-09-16T19:22:38.628Z,26.50
2022-09-16T19:25:07.048Z,26.40
2022-09-16T19:27:34.710Z,26.30
2022-09-16T19:30:22.347Z,26.30
2022-09-16T19:32:58.525Z,26.20
2022-09-16T19:35:33.212Z,26.20
2022-09-16T19:38:01.591Z,26.20
2022-09-16T19:40:29.383Z,26.20
2022-09-16T19:43:00.601Z,26.20
2022-09-16T19:45:28.063Z,26.20
2022-09-16T19:47:55.716Z,26.20
2022-09-16T19:50:23.753Z,26.10
2022-09-16T19:55:35.738Z,26.10
2022-09-16T19:58:09.243Z,26.00
2022-09-16T20:00:55.480Z,26.00
2022-09-16T20:03:26.537Z,25.90
2022-09-16T20:06:02.170Z,25.80
2022-09-16T20:08:30.760Z,25.70
2022-09-16T20:11:16.926Z,25.70
2022-09-16T20:13:57.364Z,25.60
2022-09-16T20:17:08.164Z,25.50
2022-09-16T20:19:53.085Z,25.50
2022-09-16T20:22:23.458Z,25.50
2022-09-16T20:25:06.273Z,25.50
2022-09-16T20:27:37.972Z,25.50
2022-09-16T20:30:05.847Z,25.30
2022-09-16T20:32:33.263Z,25.30
2022-09-16T20:35:00.575Z,25.30
2022-09-16T20:37:42.892Z,25.20
2022-09-16T20:40:10.265Z,25.20
2022-09-16T20:42:37.577Z,25.10
2022-09-16T20:45:05.218Z,25.10
2022-09-16T20:47:32.619Z,25.10
2022-09-16T20:50:00.841Z,25.10
2022-09-16T20:52:28.141Z,25.00
2022-09-16T20:54:58.023Z,24.90
2022-09-16T20:57:25.490Z,24.90
2022-09-16T20:59:52.797Z,24.90
2022-09-16T21:02:20.178Z,24.90
2022-09-16T21:04:48.713Z,24.80
2022-09-16T21:07:16.271Z,24.80
2022-09-16T21:09:43.729Z,24.80
2022-09-16T21:12:12.774Z,24.80
2022-09-16T21:14:40.423Z,24.80
2022-09-16T21:17:07.983Z,24.70
2022-09-16T21:19:35.440Z,24.70
2022-09-16T21:22:05.386Z,24.70
2022-09-16T21:24:32.773Z,24.70
2022-09-16T21:27:00.504Z,24.70
2022-09-16T21:29:27.926Z,24.60
2022-09-16T21:31:56.440Z,24.60
2022-09-16T21:34:24.727Z,24.70
2022-09-16T21:36:52.412Z,24.60
2022-09-16T21:39:20.890Z,24.50
2022-09-16T21:41:49.014Z,24.40
2022-09-16T21:44:17.098Z,24.40
2022-09-16T21:46:46.651Z,24.30
2022-09-16T21:49:32.741Z,24.20
2022-09-16T21:52:00.035Z,24.20
2022-09-16T21:54:28.668Z,24.10
2022-09-16T21:56:56.043Z,24.00
2022-09-16T21:59:23.662Z,24.00
2022-09-16T22:01:53.800Z,24.00
2022-09-16T22:04:30.481Z,24.10
2022-09-16T22:06:57.793Z,24.10
2022-09-16T22:09:25.170Z,24.00
2022-09-16T22:11:52.837Z,24.00
2022-09-16T22:14:20.210Z,24.00
2022-09-16T22:16:47.632Z,24.00
2022-09-16T22:19:22.155Z,24.10
2022-09-16T22:22:05.866Z,24.00
2022-09-16T22:24:33.500Z,23.90
2022-09-16T22:27:00.848Z,23.90
2022-09-16T22:29:28.508Z,23.90
2022-09-16T22:31:55.921Z,24.00
2022-09-16T22:34:23.519Z,24.00
2022-09-16T22:36:51.075Z,24.10
2022-09-16T22:39:19.947Z,23.90
2022-09-16T22:41:49.241Z,24.00
2022-09-16T22:44:16.586Z,24.00
2022-09-16T22:46:46.426Z,23.90
2022-09-16T22:49:16.082Z,23.80
2022-09-16T22:51:43.729Z,23.90
2022-09-16T22:54:12.723Z,23.90
2022-09-16T22:56:42.357Z,24.10
2022-09-16T22:59:17.830Z,24.10
2022-09-16T23:01:45.565Z,24.00
2022-09-16T23:04:13.090Z,24.00
2022-09-16T23:06:41.177Z,23.90
2022-09-16T23:09:11.302Z,23.70
2022-09-16T23:11:38.660Z,23.70
2022-09-16T23:14:06.601Z,23.70
2022-09-16T23:16:36.338Z,23.60
2022-09-16T23:19:07.148Z,23.50
2022-09-16T23:21:34.586Z,23.40
2022-09-16T23:24:04.239Z,23.30
2022-09-16T23:26:42.519Z,23.20
2022-09-16T23:29:11.055Z,23.10
2022-09-16T23:31:43.300Z,23.00
2022-09-16T23:34:20.002Z,23.00
2022-09-16T23:36:48.470Z,23.00
2022-09-16T23:39:16.581Z,22.90
2022-09-16T23:41:45.077Z,22.80
2022-09-16T23:44:14.851Z,22.70
2022-09-16T23:47:03.405Z,22.50
2022-09-16T23:49:30.676Z,22.40
2022-09-16T23:51:58.034Z,22.30
2022-09-16T23:54:25.289Z,22.10
2022-09-16T23:56:52.541Z,22.20
2022-09-16T23:59:19.816Z,22.10
